Time;durP1;ratioP1;P1;durP2;ratioP2;P2;SDS_P1;SDS_P2;PMS_P1;PMS_P2;Temp;Humidity;BMP_temperature;BMP_pressure;BME280_temperature;BME280_humidity;BME280_pressure;Samples;Min_cycle;Max_cycle;Signal;HPM_P1;HPM_P2
2022/03/24 00:01:58;;;;;;;10.70;9.23;;;4.20;99.90;;;;;;4994162;28;20087;-65
2022/03/24 00:04:26;;;;;;;10.10;9.02;;;4.20;99.90;;;;;;4993612;28;20079;-64
2022/03/24 00:06:53;;;;;;;12.50;9.13;;;4.20;99.90;;;;;;4992681;28;20149;-67
2022/03/24 00:09:20;;;;;;;11.98;8.18;;;4.10;99.90;;;;;;4993789;28;20136;-62
2022/03/24 00:11:47;;;;;;;10.98;8.48;;;4.10;99.90;;;;;;4994650;28;20076;-62
2022/03/24 00:14:16;;;;;;;10.80;7.63;;;4.00;99.90;;;;;;4996525;28;20081;-65
2022/03/24 00:16:44;;;;;;;11.35;8.68;;;4.00;99.90;;;;;;4994405;28;20046;-64
2022/03/24 00:19:11;;;;;;;10.77;8.27;;;4.00;99.90;;;;;;4993121;28;20050;-63
2022/03/24 00:21:38;;;;;;;9.43;8.05;;;4.00;99.90;;;;;;4992468;28;20073;-64
2022/03/24 00:24:05;;;;;;;13.40;9.10;;;4.00;99.90;;;;;;4995165;28;20050;-63
2022/03/24 00:26:32;;;;;;;11.07;9.40;;;4.00;99.90;;;;;;4996240;28;20053;-62
2022/03/24 00:28:59;;;;;;;8.73;7.75;;;4.10;99.90;;;;;;4992620;28;20060;-65
2022/03/24 00:31:27;;;;;;;10.93;8.70;;;4.10;99.90;;;;;;4992200;28;20054;-63
2022/03/24 00:33:55;;;;;;;10.77;7.78;;;4.20;99.90;;;;;;4994649;28;20357;-62
2022/03/24 00:36:23;;;;;;;9.85;8.13;;;4.30;99.90;;;;;;4991567;28;20049;-65
2022/03/24 00:38:53;;;;;;;11.50;8.60;;;4.40;99.90;;;;;;4994284;28;20260;-62
2022/03/24 00:41:20;;;;;;;12.75;7.82;;;4.50;99.90;;;;;;4991715;28;20594;-66
2022/03/24 00:43:48;;;;;;;12.10;8.82;;;4.50;99.90;;;;;;4997647;28;20637;-63
2022/03/24 00:46:22;;;;;;;9.20;7.93;;;4.60;99.90;;;;;;4994671;28;20041;-66
2022/03/24 00:48:51;;;;;;;12.98;8.38;;;4.60;99.90;;;;;;4994018;28;20138;-68
2022/03/24 00:51:18;;;;;;;12.35;9.02;;;4.60;99.90;;;;;;4992113;28;20052;-66
2022/03/24 00:53:46;;;;;;;8.68;6.80;;;4.60;99.90;;;;;;5001767;28;20055;-66
2022/03/24 00:56:14;;;;;;;9.50;7.60;;;4.60;99.90;;;;;;4992485;28;20046;-67
2022/03/24 00:58:42;;;;;;;11.27;7.43;;;4.60;99.90;;;;;;4992430;28;20052;-63
2022/03/24 01:01:10;;;;;;;12.93;7.47;;;4.60;99.90;;;;;;4990657;28;20054;-62
2022/03/24 01:03:38;;;;;;;15.02;7.50;;;4.60;99.90;;;;;;4991266;28;20073;-68
2022/03/24 01:06:07;;;;;;;10.10;7.78;;;4.60;99.90;;;;;;4991331;28;20152;-66
2022/03/24 01:08:35;;;;;;;9.40;7.43;;;4.60;99.90;;;;;;4993834;28;20387;-64
2022/03/24 01:11:05;;;;;;;14.82;8.00;;;4.60;99.90;;;;;;4992147;28;20056;-65
2022/03/24 01:13:36;;;;;;;8.88;8.00;;;4.60;99.90;;;;;;4989986;28;20061;-62
2022/03/24 01:16:09;;;;;;;9.15;7.63;;;4.50;99.90;;;;;;4992418;28;20065;-64
2022/03/24 01:18:39;;;;;;;7.55;6.72;;;4.50;99.90;;;;;;4991260;28;20081;-64
2022/03/24 01:21:07;;;;;;;10.18;7.38;;;4.50;99.90;;;;;;4989970;28;20054;-64
2022/03/24 01:23:34;;;;;;;7.72;6.93;;;4.60;99.90;;;;;;4992674;28;20061;-67
2022/03/24 01:26:05;;;;;;;11.80;7.20;;;4.50;99.90;;;;;;4991249;28;20125;-67
2022/03/24 01:28:33;;;;;;;7.05;6.35;;;4.50;99.90;;;;;;4991586;28;20508;-63
2022/03/24 01:31:00;;;;;;;10.18;8.85;;;4.50;99.90;;;;;;4995483;28;20463;-64
2022/03/24 01:33:27;;;;;;;9.25;7.53;;;4.60;99.90;;;;;;4991210;28;20133;-65
2022/03/24 01:35:55;;;;;;;7.25;6.43;;;4.50;99.90;;;;;;5009854;28;20719;-62
2022/03/24 01:38:23;;;;;;;8.90;6.72;;;4.40;99.90;;;;;;4992568;28;20046;-69
2022/03/24 01:40:51;;;;;;;10.15;7.20;;;4.30;99.90;;;;;;4992134;28;20159;-66
2022/03/24 01:43:19;;;;;;;9.38;7.97;;;4.30;99.90;;;;;;4987788;28;20074;-65
2022/03/24 01:45:47;;;;;;;9.18;7.72;;;4.20;99.90;;;;;;4990548;28;20548;-63
2022/03/24 01:48:15;;;;;;;9.85;8.15;;;4.10;99.90;;;;;;4997693;28;20052;-64
2022/03/24 01:50:43;;;;;;;11.93;7.82;;;4.10;99.90;;;;;;4993000;28;20672;-64
2022/03/24 01:53:12;;;;;;;10.02;7.75;;;4.00;99.90;;;;;;4990453;28;20050;-66
2022/03/24 01:55:40;;;;;;;10.13;8.07;;;4.00;99.90;;;;;;4996368;28;20129;-66
2022/03/24 01:58:09;;;;;;;10.73;7.87;;;3.90;99.90;;;;;;4989994;28;20062;-65
2022/03/24 02:00:36;;;;;;;8.65;7.75;;;3.80;99.90;;;;;;4993286;28;20071;-66
2022/03/24 02:03:05;;;;;;;9.30;8.20;;;3.80;99.90;;;;;;4993513;28;20447;-63
2022/03/24 02:05:34;;;;;;;10.90;7.47;;;3.80;99.90;;;;;;4989273;28;20057;-64
2022/03/24 02:08:05;;;;;;;8.00;6.80;;;3.90;99.90;;;;;;4991374;28;20180;-67
2022/03/24 02:10:34;;;;;;;9.88;7.93;;;4.00;99.90;;;;;;4992213;28;20053;-65
2022/03/24 02:13:03;;;;;;;11.52;7.57;;;4.10;99.90;;;;;;4986455;28;20116;-66
2022/03/24 02:15:32;;;;;;;9.82;7.50;;;4.30;99.90;;;;;;5007769;28;20058;-66
2022/03/24 02:17:59;;;;;;;11.55;6.93;;;4.30;99.90;;;;;;4996895;28;20864;-65
2022/03/24 02:20:28;;;;;;;9.27;6.97;;;4.40;99.90;;;;;;4995472;28;20061;-60
2022/03/24 02:22:55;;;;;;;9.52;7.55;;;4.40;99.90;;;;;;5001325;28;20050;-62
2022/03/24 02:25:23;;;;;;;8.80;7.68;;;4.40;99.90;;;;;;5001551;28;20077;-61
2022/03/24 02:27:55;;;;;;;8.10;6.75;;;4.50;99.90;;;;;;4999053;28;20116;-62
2022/03/24 02:30:24;;;;;;;8.23;7.32;;;4.50;99.90;;;;;;5005789;28;20034;-63
2022/03/24 02:32:52;;;;;;;10.85;6.63;;;4.50;99.90;;;;;;5006052;28;20111;-62
2022/03/24 02:35:19;;;;;;;8.00;7.10;;;4.40;99.90;;;;;;5002594;28;20077;-62
2022/03/24 02:37:45;;;;;;;9.57;6.60;;;4.40;99.90;;;;;;5005427;28;20121;-61
2022/03/24 02:40:13;;;;;;;10.57;7.32;;;4.30;99.90;;;;;;5006599;28;20169;-62
2022/03/24 02:42:40;;;;;;;13.27;7.65;;;4.20;99.90;;;;;;4999002;28;20042;-63
2022/03/24 02:45:10;;;;;;;9.05;7.43;;;4.20;99.90;;;;;;5009392;28;20089;-62
2022/03/24 02:47:37;;;;;;;;;;;4.10;99.90;;;;;;5011460;28;20120;-66
2022/03/24 02:50:05;;;;;;;9.13;7.47;;;4.00;99.90;;;;;;4994160;28;20559;-62
2022/03/24 02:52:32;;;;;;;11.25;7.43;;;3.90;99.90;;;;;;5004906;28;20065;-61
2022/03/24 02:54:59;;;;;;;12.23;7.45;;;3.90;99.90;;;;;;5001254;28;20049;-68
2022/03/24 02:57:27;;;;;;;10.68;7.38;;;3.80;99.90;;;;;;4997432;28;20141;-67
2022/03/24 02:59:54;;;;;;;11.63;9.10;;;3.80;99.90;;;;;;5008240;28;20056;-64
2022/03/24 03:02:21;;;;;;;7.80;6.97;;;3.80;99.90;;;;;;5000811;28;20065;-67
2022/03/24 03:04:49;;;;;;;9.10;8.02;;;3.80;99.90;;;;;;5001251;28;20056;-62
2022/03/24 03:07:16;;;;;;;9.18;8.07;;;3.80;99.90;;;;;;5002760;28;20145;-62
2022/03/24 03:09:43;;;;;;;9.02;8.07;;;3.80;99.90;;;;;;5002835;28;20124;-67
2022/03/24 03:12:11;;;;;;;8.77;6.70;;;3.80;99.90;;;;;;5003647;28;20828;-66
2022/03/24 03:14:39;;;;;;;8.82;7.63;;;3.80;99.90;;;;;;5002433;28;20161;-62
2022/03/24 03:17:07;;;;;;;8.63;7.65;;;3.90;99.90;;;;;;5001763;28;20453;-68
2022/03/24 03:19:34;;;;;;;9.80;7.78;;;3.90;99.90;;;;;;4997780;28;20053;-63
2022/03/24 03:22:04;;;;;;;13.52;7.90;;;3.80;99.90;;;;;;5001679;28;20085;-64
2022/03/24 03:24:32;;;;;;;8.52;7.70;;;3.80;99.90;;;;;;4999594;28;20045;-65
2022/03/24 03:26:59;;;;;;;13.98;8.05;;;3.90;99.90;;;;;;5003540;28;20497;-65
2022/03/24 03:29:27;;;;;;;9.30;7.80;;;3.80;99.90;;;;;;5002551;28;20046;-61
2022/03/24 03:31:54;;;;;;;11.93;8.80;;;3.90;99.90;;;;;;5003494;28;20060;-61
2022/03/24 03:34:25;;;;;;;13.05;8.73;;;3.90;99.90;;;;;;5002465;28;20585;-61
2022/03/24 03:36:54;;;;;;;13.05;7.55;;;3.90;99.90;;;;;;5005302;28;20057;-67
2022/03/24 03:39:23;;;;;;;10.13;8.35;;;3.90;99.90;;;;;;4997347;28;20385;-61
2022/03/24 03:41:50;;;;;;;8.82;7.32;;;3.90;99.90;;;;;;5003711;28;20050;-64
2022/03/24 03:44:18;;;;;;;9.07;8.05;;;3.90;99.90;;;;;;5003501;28;20461;-64
2022/03/24 03:46:45;;;;;;;11.25;9.38;;;3.90;99.90;;;;;;5001248;28;20057;-61
2022/03/24 03:49:12;;;;;;;9.10;7.38;;;3.80;99.90;;;;;;5001190;28;20146;-62
2022/03/24 03:51:39;;;;;;;10.13;8.20;;;3.80;99.90;;;;;;5003933;28;20045;-63
2022/03/24 03:54:07;;;;;;;12.13;8.90;;;3.70;99.90;;;;;;5003399;28;20407;-63
2022/03/24 03:56:36;;;;;;;10.73;7.95;;;3.70;99.90;;;;;;5000377;28;20057;-62
2022/03/24 03:59:04;;;;;;;11.25;8.23;;;3.70;99.90;;;;;;5001353;28;20058;-63
2022/03/24 04:01:31;;;;;;;9.48;8.18;;;3.70;99.90;;;;;;4990867;28;20070;-65
2022/03/24 04:03:58;;;;;;;10.52;7.78;;;3.70;99.90;;;;;;5002826;28;20042;-63
2022/03/24 04:06:25;;;;;;;10.02;7.57;;;3.70;99.90;;;;;;5001850;28;20818;-64
2022/03/24 04:08:52;;;;;;;10.07;7.93;;;3.80;99.90;;;;;;5005443;28;20077;-61
2022/03/24 04:11:19;;;;;;;9.75;8.75;;;3.80;99.90;;;;;;5001934;28;20050;-62
2022/03/24 04:13:47;;;;;;;10.82;7.88;;;3.80;99.90;;;;;;4993971;28;20443;-64
2022/03/24 04:16:14;;;;;;;12.77;9.38;;;3.70;99.90;;;;;;5006412;28;20650;-65
2022/03/24 04:18:43;;;;;;;9.50;8.02;;;3.70;99.90;;;;;;5001366;28;20062;-67
2022/03/24 04:21:11;;;;;;;12.13;7.67;;;3.70;99.90;;;;;;4991865;28;20070;-68
2022/03/24 04:23:40;;;;;;;11.27;8.57;;;3.60;99.90;;;;;;4997898;28;20299;-62
2022/03/24 04:26:10;;;;;;;14.15;8.80;;;3.60;99.90;;;;;;4997892;28;20754;-63
2022/03/24 04:28:39;;;;;;;14.25;10.25;;;3.60;99.90;;;;;;5002115;28;20082;-65
2022/03/24 04:31:06;;;;;;;11.60;8.60;;;3.60;99.90;;;;;;5002058;28;20407;-62
2022/03/24 04:33:33;;;;;;;11.48;8.40;;;3.60;99.90;;;;;;4999068;28;20042;-65
2022/03/24 04:36:00;;;;;;;10.48;8.07;;;3.60;99.90;;;;;;5001212;28;20153;-64
2022/03/24 04:38:27;;;;;;;11.73;8.13;;;3.60;99.90;;;;;;5002860;28;20141;-62
2022/03/24 04:40:56;;;;;;;13.88;8.88;;;3.50;99.90;;;;;;5000022;28;20077;-65
2022/03/24 04:43:24;;;;;;;11.98;8.02;;;3.50;99.90;;;;;;5000074;28;20053;-62
2022/03/24 04:45:52;;;;;;;13.10;9.43;;;3.50;99.90;;;;;;5002812;28;20124;-63
2022/03/24 04:48:19;;;;;;;13.35;9.15;;;3.40;99.90;;;;;;4996451;28;20457;-62
2022/03/24 04:50:46;;;;;;;13.05;8.98;;;3.40;99.90;;;;;;5002171;28;20137;-62
2022/03/24 04:53:15;;;;;;;11.98;10.25;;;3.30;99.90;;;;;;4998856;28;20046;-62
2022/03/24 04:55:43;;;;;;;12.20;9.55;;;3.30;99.90;;;;;;5001275;28;20064;-63
2022/03/24 04:58:11;;;;;;;12.73;9.55;;;3.30;99.90;;;;;;5001518;28;20049;-66
2022/03/24 05:00:39;;;;;;;10.98;9.55;;;3.30;99.90;;;;;;5001810;28;20049;-64
2022/03/24 05:03:06;;;;;;;15.88;9.85;;;3.30;99.90;;;;;;4994317;28;20448;-64
2022/03/24 05:05:34;;;;;;;14.27;9.95;;;3.30;99.90;;;;;;4997235;28;20050;-63
2022/03/24 05:08:01;;;;;;;12.15;10.38;;;3.30;99.90;;;;;;4996480;28;20077;-63
2022/03/24 05:10:28;;;;;;;14.38;10.38;;;3.30;99.90;;;;;;5003858;28;20412;-66
2022/03/24 05:12:55;;;;;;;12.57;9.07;;;3.30;99.90;;;;;;5002602;28;20164;-61
2022/03/24 05:15:23;;;;;;;18.42;8.60;;;3.30;99.90;;;;;;5002848;28;20133;-65
2022/03/24 05:17:51;;;;;;;15.05;9.68;;;3.30;99.90;;;;;;5002538;28;20073;-66
2022/03/24 05:20:18;;;;;;;14.68;8.98;;;3.40;99.90;;;;;;4991376;28;20161;-64
2022/03/24 05:22:45;;;;;;;11.50;9.10;;;3.40;99.90;;;;;;4992779;28;20112;-65
2022/03/24 05:25:14;;;;;;;11.40;9.27;;;3.50;99.90;;;;;;4996193;28;20064;-62
2022/03/24 05:27:41;;;;;;;12.68;9.00;;;3.50;99.90;;;;;;5001399;28;20076;-65
2022/03/24 05:30:09;;;;;;;15.10;9.90;;;3.50;99.90;;;;;;4998925;28;20436;-65
2022/03/24 05:32:39;;;;;;;12.35;9.55;;;3.50;99.90;;;;;;5005087;28;20053;-67
2022/03/24 05:35:06;;;;;;;16.58;13.15;;;3.50;99.90;;;;;;4992782;28;20046;-64
2022/03/24 05:37:33;;;;;;;12.80;10.18;;;3.50;99.90;;;;;;4998841;28;20519;-65
2022/03/24 05:40:00;;;;;;;13.00;9.55;;;3.50;99.90;;;;;;4995193;28;20705;-67
2022/03/24 05:42:27;;;;;;;13.25;8.75;;;3.60;99.90;;;;;;4985827;28;20107;-63
2022/03/24 05:44:54;;;;;;;18.65;10.43;;;3.50;99.90;;;;;;4992282;28;20141;-64
2022/03/24 05:47:21;;;;;;;15.57;8.75;;;3.60;99.90;;;;;;4988406;28;20050;-67
2022/03/24 05:49:49;;;;;;;12.98;9.93;;;3.60;99.90;;;;;;4993696;28;20736;-65
2022/03/24 05:52:29;;;;;;;22.60;12.15;;;3.60;99.90;;;;;;5009275;28;20054;-66
2022/03/24 05:54:56;;;;;;;10.82;8.73;;;3.60;99.90;;;;;;5000620;28;20073;-63
2022/03/24 05:57:23;;;;;;;13.68;9.98;;;3.70;99.90;;;;;;4996495;28;20554;-66
2022/03/24 05:59:50;;;;;;;14.35;9.95;;;3.70;99.90;;;;;;4986941;28;20078;-66
2022/03/24 06:02:18;;;;;;;12.40;8.27;;;3.70;99.90;;;;;;4990920;28;20132;-64
2022/03/24 06:04:46;;;;;;;14.77;10.95;;;3.70;99.90;;;;;;4998737;28;20113;-64
2022/03/24 06:07:14;;;;;;;17.52;10.32;;;3.70;99.90;;;;;;4993076;28;20540;-65
2022/03/24 06:09:41;;;;;;;14.15;9.35;;;3.80;99.90;;;;;;4998285;28;20057;-64
2022/03/24 06:12:09;;;;;;;26.83;10.18;;;3.80;99.90;;;;;;4988603;28;20049;-65
2022/03/24 06:14:36;;;;;;;17.02;10.23;;;3.80;99.90;;;;;;5001127;28;20061;-64
2022/03/24 06:17:04;;;;;;;14.27;9.65;;;3.90;99.90;;;;;;4995969;28;20054;-66
2022/03/24 06:19:31;;;;;;;11.25;8.77;;;3.90;99.90;;;;;;4995396;28;20045;-69
2022/03/24 06:21:58;;;;;;;15.40;9.85;;;3.90;99.90;;;;;;4995672;28;20099;-62
2022/03/24 06:24:25;;;;;;;15.13;9.98;;;4.00;99.90;;;;;;4993030;28;20069;-64
2022/03/24 06:26:52;;;;;;;11.40;9.48;;;4.00;99.90;;;;;;4997071;28;20145;-66
2022/03/24 06:29:21;;;;;;;11.73;9.32;;;4.10;99.90;;;;;;4989317;28;20054;-64
2022/03/24 06:31:49;;;;;;;16.40;9.25;;;4.10;99.90;;;;;;4996570;28;20072;-65
2022/03/24 06:34:16;;;;;;;16.98;9.57;;;4.20;99.90;;;;;;4993753;28;20476;-67
2022/03/24 06:36:43;;;;;;;14.35;10.63;;;4.20;99.90;;;;;;4996342;28;20165;-62
2022/03/24 06:39:11;;;;;;;14.13;8.30;;;4.30;99.90;;;;;;4993873;28;21627;-65
2022/03/24 06:41:37;;;;;;;14.73;9.07;;;4.30;99.90;;;;;;4994263;28;20139;-66
2022/03/24 06:44:06;;;;;;;17.40;9.85;;;4.30;99.90;;;;;;4997795;28;20448;-64
2022/03/24 06:46:34;;;;;;;33.47;10.35;;;4.40;99.90;;;;;;4990531;28;20049;-63
2022/03/24 06:49:01;;;;;;;15.75;8.63;;;4.40;99.90;;;;;;4991625;28;20505;-63
2022/03/24 06:51:28;;;;;;;15.98;10.63;;;4.50;99.90;;;;;;4994819;28;20126;-64
2022/03/24 06:53:55;;;;;;;19.23;10.73;;;4.50;99.90;;;;;;4983297;28;20132;-63
2022/03/24 06:56:22;;;;;;;18.83;9.68;;;4.60;99.90;;;;;;4986342;28;20117;-63
2022/03/24 06:58:50;;;;;;;20.13;11.90;;;4.60;99.90;;;;;;4988752;28;20050;-63
2022/03/24 07:01:18;;;;;;;14.60;9.60;;;4.60;99.90;;;;;;4987780;28;20045;-63
2022/03/24 07:03:46;;;;;;;13.57;10.10;;;4.70;99.90;;;;;;4998655;28;20499;-62
2022/03/24 07:06:13;;;;;;;14.98;9.90;;;4.70;99.90;;;;;;5000218;28;20711;-67
2022/03/24 07:08:40;;;;;;;13.82;9.77;;;4.70;99.90;;;;;;4991065;28;20681;-63
2022/03/24 07:11:08;;;;;;;13.45;9.82;;;4.80;99.90;;;;;;4994683;28;20140;-65
2022/03/24 07:13:35;;;;;;;15.38;10.45;;;4.80;99.90;;;;;;4998303;28;20068;-68
2022/03/24 07:16:08;;;;;;;18.10;9.77;;;4.90;99.90;;;;;;4998568;28;20052;-65
2022/03/24 07:18:35;;;;;;;13.30;9.23;;;4.90;99.90;;;;;;5002907;28;20049;-64
2022/03/24 07:21:02;;;;;;;11.68;9.27;;;4.90;99.90;;;;;;4990945;28;20101;-69
2022/03/24 07:23:29;;;;;;;14.63;9.40;;;4.90;99.90;;;;;;4989166;28;20489;-64
2022/03/24 07:25:56;;;;;;;16.15;10.02;;;4.90;99.90;;;;;;4992032;28;20395;-63
2022/03/24 07:28:23;;;;;;;14.23;9.70;;;5.00;99.90;;;;;;4995329;28;20160;-64
2022/03/24 07:30:50;;;;;;;12.02;8.65;;;5.00;99.90;;;;;;4989545;28;20141;-66
2022/03/24 07:33:20;;;;;;;16.20;9.80;;;5.00;99.90;;;;;;4994404;28;20169;-64
2022/03/24 07:35:48;;;;;;;19.33;9.48;;;5.10;99.90;;;;;;4992131;28;20050;-64
2022/03/24 07:38:16;;;;;;;13.07;9.15;;;5.10;99.90;;;;;;4996893;28;20049;-62
2022/03/24 07:40:50;;;;;;;22.20;10.23;;;5.10;99.90;;;;;;4993373;28;20037;-63
2022/03/24 07:43:17;;;;;;;10.93;9.75;;;5.10;99.90;;;;;;4994359;28;20121;-61
2022/03/24 07:45:44;;;;;;;16.15;10.05;;;5.10;99.90;;;;;;4995166;28;20094;-62
2022/03/24 07:48:12;;;;;;;12.80;9.82;;;5.20;99.90;;;;;;4999783;28;20152;-63
2022/03/24 07:50:45;;;;;;;14.18;10.10;;;5.20;99.90;;;;;;4996434;28;20169;-63
2022/03/24 07:53:12;;;;;;;12.10;9.52;;;5.30;99.90;;;;;;4960661;28;20049;-67
2022/03/24 07:55:43;;;;;;;14.32;10.20;;;5.30;99.90;;;;;;5001720;28;20441;-67
2022/03/24 07:58:11;;;;;;;13.40;9.18;;;5.30;99.90;;;;;;4999702;28;20046;-64
2022/03/24 08:00:39;;;;;;;18.35;9.43;;;5.40;99.90;;;;;;5003169;28;20076;-63
2022/03/24 08:03:11;;;;;;;16.65;8.93;;;5.40;99.90;;;;;;4998768;28;20054;-64
2022/03/24 08:05:38;;;;;;;15.07;9.55;;;5.40;99.90;;;;;;5002635;28;20065;-63
2022/03/24 08:08:05;;;;;;;15.77;10.95;;;5.40;99.90;;;;;;4998890;28;20136;-65
2022/03/24 08:10:32;;;;;;;11.68;9.27;;;5.40;99.90;;;;;;4996354;28;20246;-63
2022/03/24 08:12:59;;;;;;;18.40;9.05;;;5.50;99.90;;;;;;5000057;28;20076;-63
2022/03/24 08:15:26;;;;;;;12.82;8.25;;;5.50;99.90;;;;;;5010896;28;20531;-61
2022/03/24 08:17:53;;;;;;;11.57;8.43;;;5.50;99.90;;;;;;5000878;28;20398;-63
2022/03/24 08:20:20;;;;;;;10.68;8.77;;;5.60;99.90;;;;;;4996591;28;20569;-64
2022/03/24 08:22:47;;;;;;;12.90;9.27;;;5.60;99.90;;;;;;4999643;28;20370;-62
2022/03/24 08:25:14;;;;;;;17.20;9.77;;;5.60;99.90;;;;;;4997922;28;20058;-62
2022/03/24 08:27:41;;;;;;;12.07;10.30;;;5.70;99.90;;;;;;4994947;28;20455;-63
2022/03/24 08:30:08;;;;;;;13.35;9.07;;;5.70;99.90;;;;;;5003745;28;20145;-63
2022/03/24 08:32:35;;;;;;;13.82;8.60;;;5.80;99.90;;;;;;4998685;28;20487;-63
2022/03/24 08:35:02;;;;;;;14.95;9.07;;;5.80;99.90;;;;;;5003661;28;20042;-64
2022/03/24 08:37:29;;;;;;;11.73;8.40;;;5.90;99.90;;;;;;4998069;28;20065;-62
2022/03/24 08:40:03;;;;;;;12.95;8.88;;;5.90;99.90;;;;;;5002926;28;20054;-63
2022/03/24 08:42:30;;;;;;;12.38;9.18;;;5.90;99.90;;;;;;5002100;28;20081;-64
2022/03/24 08:44:57;;;;;;;14.15;10.45;;;5.90;99.90;;;;;;4999926;28;20460;-65
2022/03/24 08:47:24;;;;;;;18.08;9.45;;;5.90;99.90;;;;;;4998496;28;20540;-66
2022/03/24 08:49:51;;;;;;;17.92;10.50;;;5.90;99.90;;;;;;4998247;28;20046;-65
2022/03/24 08:52:18;;;;;;;15.80;11.68;;;5.90;99.90;;;;;;5001224;28;20133;-67
2022/03/24 08:54:44;;;;;;;15.60;11.00;;;5.90;99.90;;;;;;4999481;28;20248;-64
2022/03/24 08:57:11;;;;;;;11.10;9.40;;;5.90;99.90;;;;;;4999736;28;20077;-64
2022/03/24 08:59:38;;;;;;;12.48;9.90;;;6.10;99.90;;;;;;5002881;28;20085;-65
2022/03/24 09:02:05;;;;;;;16.63;9.40;;;6.10;99.90;;;;;;4998332;28;20049;-64
2022/03/24 09:04:32;;;;;;;17.83;9.55;;;6.10;99.90;;;;;;5001786;28;20078;-66
2022/03/24 09:07:19;;;;;;;11.85;9.68;;;6.10;99.90;;;;;;4999227;28;20160;-63
2022/03/24 09:09:46;;;;;;;17.88;10.00;;;6.20;99.90;;;;;;5002553;28;20056;-63
2022/03/24 09:12:13;;;;;;;13.13;9.93;;;6.20;99.90;;;;;;5002161;28;20062;-67
2022/03/24 09:14:42;;;;;;;13.82;9.95;;;6.20;99.90;;;;;;4996101;28;20038;-64
2022/03/24 09:17:09;;;;;;;12.70;10.25;;;6.30;99.90;;;;;;4991335;28;20050;-66
2022/03/24 09:19:36;;;;;;;17.77;11.38;;;6.40;99.90;;;;;;5003185;28;20057;-65
2022/03/24 09:22:05;;;;;;;18.08;10.25;;;6.40;99.90;;;;;;5002430;28;20081;-67
2022/03/24 09:24:38;;;;;;;14.48;8.85;;;6.50;99.90;;;;;;4992883;28;20046;-65
2022/03/24 09:27:05;;;;;;;14.80;9.60;;;6.50;99.90;;;;;;5002024;28;20534;-69
2022/03/24 09:29:32;;;;;;;12.98;9.32;;;6.60;99.90;;;;;;4995156;28;20789;-68
2022/03/24 09:31:59;;;;;;;13.27;9.90;;;6.60;99.90;;;;;;5001649;28;20152;-64
2022/03/24 09:34:27;;;;;;;22.45;10.27;;;6.50;99.90;;;;;;4999705;28;20076;-66
2022/03/24 09:36:54;;;;;;;13.55;9.48;;;6.50;99.90;;;;;;4990716;28;20085;-64
2022/03/24 09:39:21;;;;;;;12.00;10.15;;;6.60;99.90;;;;;;5001672;28;20769;-65
2022/03/24 09:41:48;;;;;;;18.45;10.18;;;6.60;99.90;;;;;;4992187;28;20129;-67
2022/03/24 09:44:15;;;;;;;13.60;10.00;;;6.70;99.90;;;;;;5002125;28;20706;-66
2022/03/24 09:46:43;;;;;;;12.70;9.68;;;6.80;99.90;;;;;;4993727;28;20046;-64
2022/03/24 09:49:15;;;;;;;16.45;9.85;;;6.80;99.90;;;;;;5000626;28;20097;-63
2022/03/24 09:51:43;;;;;;;17.27;10.43;;;6.80;99.90;;;;;;5002405;28;20049;-64
2022/03/24 09:54:11;;;;;;;11.32;8.77;;;6.90;99.90;;;;;;5001127;28;20051;-65
2022/03/24 09:56:39;;;;;;;12.35;9.88;;;7.00;99.90;;;;;;4996632;28;20580;-68
2022/03/24 09:59:09;;;;;;;13.60;9.95;;;7.00;99.90;;;;;;4998019;28;20132;-64
2022/03/24 10:01:39;;;;;;;12.13;9.07;;;7.00;99.90;;;;;;5002354;28;20081;-66
2022/03/24 10:04:08;;;;;;;18.00;10.25;;;7.10;99.90;;;;;;5001930;28;20342;-66
2022/03/24 10:06:47;;;;;;;11.40;10.07;;;7.20;99.90;;;;;;4997364;28;20138;-64
2022/03/24 10:09:13;;;;;;;31.80;10.73;;;7.20;99.90;;;;;;4994745;28;20191;-65
2022/03/24 10:11:48;;;;;;;15.57;10.30;;;7.30;99.90;;;;;;4987677;28;20074;-65
2022/03/24 10:14:22;;;;;;;13.70;8.75;;;7.40;99.90;;;;;;4992222;28;20487;-64
2022/03/24 10:16:49;;;;;;;14.80;8.70;;;7.50;99.90;;;;;;4986929;28;20696;-65
2022/03/24 10:19:18;;;;;;;15.45;9.63;;;7.60;99.90;;;;;;4993040;28;20122;-63
2022/03/24 10:21:48;;;;;;;10.85;8.75;;;7.70;99.90;;;;;;5001466;28;20049;-66
2022/03/24 10:24:21;;;;;;;14.15;9.45;;;7.70;99.90;;;;;;4999052;28;20057;-63
2022/03/24 10:27:02;;;;;;;13.80;9.93;;;7.60;99.90;;;;;;4988783;28;20477;-64
2022/03/24 10:29:31;;;;;;;14.15;9.20;;;7.70;99.90;;;;;;4999712;28;20884;-64
2022/03/24 10:32:00;;;;;;;16.35;9.80;;;7.80;99.90;;;;;;5001901;28;20049;-68
2022/03/24 10:34:35;;;;;;;12.60;9.82;;;7.80;99.90;;;;;;4994427;28;20085;-64
2022/03/24 10:37:12;;;;;;;13.63;9.38;;;7.90;99.90;;;;;;4997989;28;20772;-66
2022/03/24 10:39:57;;;;;;;16.38;10.10;;;7.80;99.90;;;;;;4993540;28;20053;-68
2022/03/24 10:42:27;;;;;;;25.90;10.45;;;7.80;99.90;;;;;;4999977;28;20056;-63
2022/03/24 10:45:20;;;;;;;11.50;9.23;;;7.80;99.90;;;;;;5005352;28;20053;-65
2022/03/24 10:47:48;;;;;;;10.57;9.05;;;8.00;99.90;;;;;;4999305;28;20654;-62
2022/03/24 10:50:19;;;;;;;16.17;9.02;;;8.10;99.90;;;;;;5005230;28;20816;-64
2022/03/24 10:52:46;;;;;;;12.80;9.15;;;8.20;99.90;;;;;;5001162;28;20064;-62
2022/03/24 10:55:32;;;;;;;14.93;10.90;;;8.30;99.90;;;;;;4996227;28;20046;-66
2022/03/24 10:58:00;;;;;;;12.32;8.30;;;8.30;99.90;;;;;;4997733;28;20095;-66
2022/03/24 11:00:27;;;;;;;9.07;7.70;;;8.40;99.90;;;;;;4989414;28;20053;-63
2022/03/24 11:02:55;;;;;;;13.98;9.48;;;8.40;99.90;;;;;;4992016;28;20073;-62
2022/03/24 11:05:23;;;;;;;13.35;9.55;;;8.60;99.90;;;;;;4987002;28;20046;-64
2022/03/24 11:07:56;;;;;;;12.48;9.15;;;8.70;99.90;;;;;;4999481;28;20166;-62
2022/03/24 11:10:23;;;;;;;17.25;8.43;;;8.70;99.90;;;;;;4996135;28;20052;-62
2022/03/24 11:12:54;;;;;;;13.80;8.82;;;8.50;99.90;;;;;;4995823;28;20523;-63
2022/03/24 11:15:22;;;;;;;17.27;8.65;;;8.40;99.90;;;;;;4992460;28;20046;-67
2022/03/24 11:17:49;;;;;;;14.88;9.18;;;8.30;99.90;;;;;;4991786;28;20108;-62
2022/03/24 11:20:35;;;;;;;13.80;9.10;;;8.40;99.90;;;;;;4998125;28;20855;-65
2022/03/24 11:23:10;;;;;;;14.40;9.10;;;8.40;99.90;;;;;;4993087;28;20038;-64
2022/03/24 11:25:38;;;;;;;13.93;8.45;;;8.30;99.90;;;;;;4995384;28;20133;-65
2022/03/24 11:28:11;;;;;;;14.50;9.27;;;8.30;99.90;;;;;;4997877;28;20065;-65
2022/03/24 11:30:38;;;;;;;13.65;8.57;;;8.40;99.90;;;;;;5001073;28;20463;-65
2022/03/24 11:33:05;;;;;;;12.68;8.93;;;8.40;99.90;;;;;;4996732;28;20735;-64
2022/03/24 11:35:36;;;;;;;12.15;8.63;;;8.40;99.90;;;;;;5002338;28;20129;-65
2022/03/24 11:38:04;;;;;;;12.00;7.38;;;8.50;99.90;;;;;;5001620;28;20253;-66
2022/03/24 11:40:33;;;;;;;11.48;9.23;;;8.60;99.90;;;;;;5000986;28;20060;-64
2022/03/24 11:43:19;;;;;;;15.30;9.10;;;8.70;99.90;;;;;;5001151;28;20069;-65
2022/03/24 11:45:49;;;;;;;17.17;8.52;;;8.70;99.90;;;;;;4998042;28;20054;-62
2022/03/24 11:48:48;;;;;;;9.05;7.18;;;8.80;99.90;;;;;;4998575;28;20125;-64
2022/03/24 11:51:16;;;;;;;10.90;8.95;;;8.90;99.90;;;;;;4998992;28;20093;-69
2022/03/24 11:53:44;;;;;;;12.93;8.45;;;9.10;99.90;;;;;;5000698;28;20076;-66
2022/03/24 11:56:13;;;;;;;13.85;8.35;;;9.10;99.90;;;;;;5001591;28;20157;-64
2022/03/24 11:58:59;;;;;;;13.80;7.78;;;9.20;99.90;;;;;;5000933;28;20050;-64
2022/03/24 12:01:35;;;;;;;12.88;8.52;;;9.30;99.90;;;;;;4999924;28;20054;-65
2022/03/24 12:04:08;;;;;;;12.07;8.13;;;9.40;99.90;;;;;;5002966;28;20054;-63
2022/03/24 12:06:42;;;;;;;16.35;8.05;;;9.30;99.60;;;;;;5003255;28;20072;-65
2022/03/24 12:09:13;;;;;;;23.25;8.55;;;9.40;98.80;;;;;;4998773;28;20789;-66
2022/03/24 12:11:43;;;;;;;10.70;7.78;;;9.40;98.20;;;;;;5003352;28;20413;-65
2022/03/24 12:14:32;;;;;;;10.88;7.13;;;9.60;97.20;;;;;;5002415;28;20054;-64
2022/03/24 12:17:15;;;;;;;17.13;9.38;;;9.80;94.60;;;;;;4995094;28;20054;-63
2022/03/24 12:19:47;;;;;;;10.48;8.02;;;9.90;94.10;;;;;;4998406;28;20058;-66
2022/03/24 12:22:26;;;;;;;9.85;6.32;;;10.00;94.20;;;;;;5003245;28;20072;-66
2022/03/24 12:25:14;;;;;;;13.80;6.85;;;10.20;93.00;;;;;;4985753;28;20612;-68
2022/03/24 12:28:07;;;;;;;15.32;7.95;;;10.20;92.70;;;;;;4991848;28;20440;-65
2022/03/24 12:31:04;;;;;;;15.88;7.65;;;10.30;93.70;;;;;;4993067;28;20102;-68
2022/03/24 12:33:37;;;;;;;16.88;9.77;;;10.40;94.10;;;;;;4987771;28;20049;-65
2022/03/24 12:36:04;;;;;;;12.68;8.07;;;10.40;94.50;;;;;;4995237;28;20438;-65
2022/03/24 12:38:34;;;;;;;11.63;8.60;;;10.40;94.40;;;;;;4979670;28;20058;-67
2022/03/24 12:41:04;;;;;;;9.70;6.82;;;10.30;94.30;;;;;;4981738;28;20058;-65
2022/03/24 12:43:49;;;;;;;11.20;7.47;;;10.40;93.60;;;;;;4988628;28;20081;-65
2022/03/24 12:46:27;;;;;;;9.82;6.63;;;10.20;93.40;;;;;;4996683;28;20057;-64
2022/03/24 12:48:56;;;;;;;22.55;8.80;;;10.30;93.10;;;;;;4990671;28;20157;-68
2022/03/24 12:51:28;;;;;;;15.20;7.47;;;10.40;92.20;;;;;;4997167;28;20678;-66
2022/03/24 12:53:58;;;;;;;13.98;7.07;;;10.50;91.30;;;;;;4988994;28;20053;-64
2022/03/24 12:56:27;;;;;;;8.70;6.95;;;10.50;90.90;;;;;;4985928;28;20070;-67
2022/03/24 12:58:57;;;;;;;14.38;7.60;;;10.70;90.30;;;;;;4994041;28;20088;-72